createdAt,value
2019-01-26T00:01:34.279Z,-3.72
2019-01-26T00:04:03.197Z,-3.73
2019-01-26T00:06:32.188Z,-3.74
2019-01-26T00:09:01.488Z,-3.74
2019-01-26T00:11:30.377Z,-3.78
2019-01-26T00:13:59.374Z,-3.79
2019-01-26T00:16:28.363Z,-3.75
2019-01-26T00:18:56.991Z,-3.81
2019-01-26T00:21:25.681Z,-3.81
2019-01-26T00:23:54.633Z,-3.81
2019-01-26T00:26:23.624Z,-3.81
2019-01-26T00:28:52.266Z,-3.81
2019-01-26T00:31:20.992Z,-3.81
2019-01-26T00:33:49.990Z,-3.79
2019-01-26T00:36:18.981Z,-3.82
2019-01-26T00:38:47.872Z,-3.77
2019-01-26T00:41:16.870Z,-3.74
2019-01-26T00:43:45.876Z,-3.76
2019-01-26T00:46:14.857Z,-3.74
2019-01-26T00:48:43.531Z,-3.76
2019-01-26T00:51:17.095Z,-3.77
2019-01-26T00:53:42.981Z,-3.73
2019-01-26T00:56:12.056Z,-3.67
2019-01-26T00:58:41.058Z,-3.72
2019-01-26T01:01:10.154Z,-3.71
2019-01-26T01:03:39.226Z,-3.72
2019-01-26T01:06:07.973Z,-3.74
2019-01-26T01:08:37.030Z,-3.74
2019-01-26T01:11:05.752Z,-3.72
2019-01-26T01:13:34.709Z,-3.70
2019-01-26T01:16:03.907Z,-3.68
2019-01-26T01:18:32.710Z,-3.66
2019-01-26T01:21:01.897Z,-3.63
2019-01-26T01:23:30.702Z,-3.59
2019-01-26T01:25:59.678Z,-3.58
2019-01-26T01:28:28.671Z,-3.57
2019-01-26T01:30:58.075Z,-3.53
2019-01-26T01:33:36.828Z,-3.52
2019-01-26T01:36:05.556Z,-3.43
2019-01-26T01:38:34.578Z,-3.42
2019-01-26T01:41:03.205Z,-3.38
2019-01-26T01:43:32.153Z,-3.22
2019-01-26T01:46:00.782Z,-3.35
2019-01-26T01:48:30.038Z,-3.35
2019-01-26T01:50:59.031Z,-3.30
2019-01-26T01:53:28.040Z,-3.30
2019-01-26T01:55:57.021Z,-3.26
2019-01-26T01:58:25.684Z,-3.24
2019-01-26T02:00:54.700Z,-3.23
2019-01-26T02:03:23.731Z,-3.20
2019-01-26T02:05:52.469Z,-3.16
2019-01-26T02:08:21.375Z,-3.16
2019-01-26T02:10:50.097Z,-3.16
2019-01-26T02:13:18.747Z,-3.13
2019-01-26T02:15:47.639Z,-3.10
2019-01-26T02:18:16.278Z,-3.07
2019-01-26T02:20:44.986Z,-3.11
2019-01-26T02:23:13.902Z,-3.09
2019-01-26T02:25:42.850Z,-3.09
2019-01-26T02:28:11.471Z,-3.06
2019-01-26T02:30:40.470Z,-3.05
2019-01-26T02:33:09.113Z,-3.02
2019-01-26T02:35:37.823Z,-3.03
2019-01-26T02:38:06.761Z,-3.02
2019-01-26T02:40:35.909Z,-2.99
2019-01-26T02:43:04.548Z,-3.00
2019-01-26T02:45:33.297Z,-2.98
2019-01-26T02:48:02.202Z,-2.93
2019-01-26T02:50:30.904Z,-2.93
2019-01-26T02:52:59.647Z,-2.91
2019-01-26T02:55:28.571Z,-2.91
2019-01-26T02:57:57.564Z,-2.89
2019-01-26T03:00:26.291Z,-2.91
2019-01-26T03:02:55.549Z,-2.89
2019-01-26T03:05:24.212Z,-2.84
2019-01-26T03:07:52.895Z,-2.84
2019-01-26T03:10:23.041Z,-2.79
2019-01-26T03:12:52.041Z,-2.77
2019-01-26T03:15:22.027Z,-2.78
2019-01-26T03:17:51.251Z,-2.75
2019-01-26T03:20:19.946Z,-2.78
2019-01-26T03:22:49.245Z,-2.70
2019-01-26T03:25:18.260Z,-2.65
2019-01-26T03:27:47.123Z,-2.64
2019-01-26T03:30:18.252Z,-2.71
2019-01-26T03:32:46.919Z,-2.75
2019-01-26T03:35:15.702Z,-2.72
2019-01-26T03:37:44.417Z,-2.69
2019-01-26T03:40:14.362Z,-2.53
2019-01-26T03:42:43.133Z,-2.57
2019-01-26T03:45:13.054Z,-2.58
2019-01-26T03:47:41.952Z,-2.61
2019-01-26T03:50:11.536Z,-2.53
2019-01-26T03:52:40.524Z,-2.55
2019-01-26T03:55:10.884Z,-2.55
2019-01-26T03:57:39.966Z,-2.58
2019-01-26T04:00:18.260Z,-2.58
2019-01-26T04:02:47.284Z,-2.55
2019-01-26T04:05:16.575Z,-2.54
2019-01-26T04:07:45.671Z,-2.57
2019-01-26T04:10:14.501Z,-2.52
2019-01-26T04:12:43.285Z,-2.55
2019-01-26T04:15:13.057Z,-2.54
2019-01-26T04:17:42.463Z,-2.55
2019-01-26T04:20:13.983Z,-2.41
2019-01-26T04:22:42.715Z,-2.46
2019-01-26T04:25:11.807Z,-2.45
2019-01-26T04:27:40.476Z,-2.51
2019-01-26T04:30:12.345Z,-2.40
2019-01-26T04:32:41.009Z,-2.37
2019-01-26T04:35:09.975Z,-2.31
2019-01-26T04:37:39.019Z,-2.40
2019-01-26T04:40:10.501Z,-2.38
2019-01-26T04:42:39.614Z,-2.45
2019-01-26T04:45:11.886Z,-2.52
2019-01-26T04:47:40.500Z,-2.52
2019-01-26T04:50:11.565Z,-2.48
2019-01-26T04:52:40.459Z,-2.50
2019-01-26T04:55:11.398Z,-2.50
2019-01-26T04:57:40.508Z,-2.48
2019-01-26T05:00:13.861Z,-2.51
2019-01-26T05:02:42.495Z,-2.48
2019-01-26T05:05:11.408Z,-2.51
2019-01-26T05:07:40.028Z,-2.48
2019-01-26T05:10:10.707Z,-2.48
2019-01-26T05:12:39.344Z,-2.49
2019-01-26T05:15:09.081Z,-2.51
2019-01-26T05:17:39.503Z,-2.47
2019-01-26T05:20:11.354Z,-2.50
2019-01-26T05:22:40.017Z,-2.47
2019-01-26T05:25:09.053Z,-2.48
2019-01-26T05:27:37.732Z,-2.44
2019-01-26T05:30:10.007Z,-2.45
2019-01-26T05:32:38.854Z,-2.44
2019-01-26T05:35:07.651Z,-2.38
2019-01-26T05:37:36.882Z,-2.40
2019-01-26T05:40:07.924Z,-2.36
2019-01-26T05:42:36.890Z,-2.30
2019-01-26T05:45:07.125Z,-2.37
2019-01-26T05:47:35.805Z,-2.38
2019-01-26T05:50:06.562Z,-2.37
2019-01-26T05:52:35.454Z,-2.34
2019-01-26T05:55:04.730Z,-2.22
2019-01-26T05:57:33.654Z,-2.25
2019-01-26T06:00:02.370Z,-2.30
2019-01-26T06:02:31.949Z,-2.29
2019-01-26T06:05:00.595Z,-2.28
2019-01-26T06:07:29.516Z,-2.26
2019-01-26T06:09:58.266Z,-2.21
2019-01-26T06:12:27.293Z,-2.23
2019-01-26T06:14:56.608Z,-2.23
2019-01-26T06:17:25.350Z,-2.22
2019-01-26T06:19:54.007Z,-2.23
2019-01-26T06:22:22.978Z,-2.20
2019-01-26T06:24:51.867Z,-2.12
2019-01-26T06:27:20.759Z,-2.11
2019-01-26T06:29:49.959Z,-2.14
2019-01-26T06:32:18.601Z,-2.12
2019-01-26T06:34:47.531Z,-2.14
2019-01-26T06:37:16.176Z,-2.09
2019-01-26T06:39:45.517Z,-2.13
2019-01-26T06:42:14.180Z,-2.12
2019-01-26T06:44:43.403Z,-2.10
2019-01-26T06:47:12.029Z,-2.11
2019-01-26T06:49:40.988Z,-2.10
2019-01-26T06:52:09.727Z,-2.10
2019-01-26T06:54:38.348Z,-2.08
2019-01-26T06:57:07.122Z,-2.05
2019-01-26T06:59:35.852Z,-2.05
2019-01-26T07:02:04.821Z,-2.05
2019-01-26T07:04:51.328Z,-1.99
2019-01-26T07:07:20.932Z,-1.89
2019-01-26T07:09:49.603Z,-1.89
2019-01-26T07:12:18.343Z,-1.82
2019-01-26T07:14:46.994Z,-1.86
2019-01-26T07:17:15.641Z,-1.80
2019-01-26T07:19:44.295Z,-1.79
2019-01-26T07:22:13.254Z,-1.83
2019-01-26T07:24:42.732Z,-1.84
2019-01-26T07:27:11.653Z,-1.80
2019-01-26T07:29:40.797Z,-1.81
2019-01-26T07:32:09.469Z,-1.71
2019-01-26T07:34:38.431Z,-1.66
2019-01-26T07:37:07.428Z,-1.61
2019-01-26T07:39:36.423Z,-1.53
2019-01-26T07:42:05.261Z,-1.65
2019-01-26T07:44:34.236Z,-1.64
2019-01-26T07:47:03.191Z,-1.65
2019-01-26T07:49:31.821Z,-1.59
2019-01-26T07:52:01.179Z,-1.47
2019-01-26T07:54:29.818Z,-1.56
2019-01-26T07:56:58.757Z,-1.58
2019-01-26T07:59:27.749Z,-1.56
2019-01-26T08:01:56.392Z,-1.54
2019-01-26T08:04:25.428Z,-1.55
2019-01-26T08:06:54.433Z,-1.58
2019-01-26T08:09:23.143Z,-1.58
2019-01-26T08:11:52.112Z,-1.60
2019-01-26T08:14:20.771Z,-1.60
2019-01-26T08:16:49.509Z,-1.59
2019-01-26T08:19:18.785Z,-1.57
2019-01-26T08:21:47.407Z,-1.55
2019-01-26T08:24:16.160Z,-1.50
2019-01-26T08:26:45.359Z,-1.50
2019-01-26T08:29:13.989Z,-1.50
2019-01-26T08:31:42.893Z,-1.49
2019-01-26T08:34:11.563Z,-1.46
2019-01-26T08:37:26.173Z,-1.43
2019-01-26T08:41:04.206Z,-1.39
2019-01-26T08:47:22.913Z,-1.29
2019-01-26T08:49:51.970Z,-1.26
2019-01-26T08:52:20.635Z,-1.25
2019-01-26T08:54:49.314Z,-1.26
2019-01-26T08:57:17.950Z,-1.26
2019-01-26T08:59:46.914Z,-1.24
2019-01-26T09:02:45.302Z,-1.14
2019-01-26T09:05:16.030Z,-1.16
2019-01-26T09:07:44.909Z,-1.12
2019-01-26T09:10:13.873Z,-1.06
2019-01-26T09:12:43.117Z,-1.07
2019-01-26T09:15:12.121Z,-1.05
2019-01-26T09:17:40.950Z,-1.01
2019-01-26T09:20:11.784Z,-1.03
2019-01-26T09:22:40.646Z,-1.04
2019-01-26T09:25:09.721Z,-0.95
2019-01-26T09:27:39.153Z,-0.96
2019-01-26T09:30:08.538Z,-0.91
2019-01-26T09:32:37.264Z,-0.90
2019-01-26T09:35:06.119Z,-0.83
2019-01-26T09:37:34.760Z,-0.81
2019-01-26T09:40:04.408Z,-0.75
2019-01-26T09:42:33.109Z,-0.69
2019-01-26T09:45:01.773Z,-0.61
2019-01-26T09:47:30.422Z,-0.62
2019-01-26T09:53:27.497Z,-0.55
2019-01-26T09:55:56.797Z,-0.46
2019-01-26T09:58:25.744Z,-0.46
2019-01-26T10:00:54.488Z,-0.45
2019-01-26T10:03:23.408Z,-0.38
2019-01-26T10:05:52.052Z,-0.33
2019-01-26T10:08:20.987Z,-0.34
2019-01-26T10:10:49.876Z,-0.32
2019-01-26T10:13:18.498Z,-0.27
2019-01-26T10:15:50.936Z,-0.21
2019-01-26T10:18:19.815Z,-0.15
2019-01-26T10:20:59.729Z,-0.19
2019-01-26T10:23:28.630Z,-0.05
2019-01-26T10:26:00.174Z,-0.05
2019-01-26T10:28:29.339Z,0.09
2019-01-26T10:31:02.394Z,0.19
2019-01-26T10:33:37.590Z,0.09
2019-01-26T10:36:25.567Z,0.20
2019-01-26T10:42:57.453Z,0.41
2019-01-26T10:45:27.355Z,0.56
2019-01-26T10:47:56.384Z,0.67
2019-01-26T10:50:25.375Z,0.74
2019-01-26T10:52:54.152Z,0.94
2019-01-26T10:55:23.162Z,0.77
2019-01-26T10:57:52.023Z,0.77
2019-01-26T11:00:22.184Z,0.71
2019-01-26T11:02:51.160Z,0.76
2019-01-26T11:05:20.260Z,0.79
2019-01-26T11:07:49.356Z,0.99
2019-01-26T11:10:18.346Z,0.95
2019-01-26T11:12:47.076Z,0.85
2019-01-26T11:15:16.040Z,0.97
2019-01-26T11:18:26.829Z,1.08
2019-01-26T11:20:55.757Z,1.05
2019-01-26T11:23:24.641Z,1.08
2019-01-26T11:25:53.301Z,1.21
2019-01-26T11:28:21.983Z,1.21
2019-01-26T11:30:50.645Z,1.37
2019-01-26T11:33:19.651Z,1.18
2019-01-26T11:35:48.353Z,1.15
2019-01-26T11:38:17.339Z,1.17
2019-01-26T11:40:46.027Z,1.27
2019-01-26T11:43:14.769Z,1.19
2019-01-26T11:46:03.779Z,1.28
2019-01-26T11:48:35.454Z,1.25
2019-01-26T11:51:14.922Z,1.35
2019-01-26T11:53:43.912Z,1.41
2019-01-26T11:56:37.745Z,1.38
2019-01-26T11:59:06.661Z,1.36
2019-01-26T12:01:42.693Z,1.52
2019-01-26T12:04:19.607Z,1.47
2019-01-26T12:06:56.509Z,1.62
2019-01-26T12:09:25.332Z,1.61
2019-01-26T12:11:54.249Z,1.72
2019-01-26T12:14:23.598Z,1.57
2019-01-26T12:16:52.553Z,1.68
2019-01-26T12:19:22.496Z,1.68
2019-01-26T12:21:51.540Z,1.72
2019-01-26T12:24:26.760Z,1.83
2019-01-26T12:28:18.903Z,1.96
2019-01-26T12:30:52.676Z,1.94
2019-01-26T12:33:21.717Z,1.91
2019-01-26T12:35:50.711Z,1.82
2019-01-26T12:38:20.413Z,1.90
2019-01-26T12:40:49.634Z,1.97
2019-01-26T12:43:18.359Z,1.98
2019-01-26T12:45:47.305Z,1.95
2019-01-26T12:48:15.955Z,1.97
2019-01-26T12:50:44.708Z,1.95
2019-01-26T12:53:13.687Z,2.04
2019-01-26T12:55:42.851Z,2.03
2019-01-26T12:58:11.612Z,2.11
2019-01-26T13:00:40.368Z,2.10
2019-01-26T13:03:09.428Z,2.05
2019-01-26T13:05:38.495Z,2.09
2019-01-26T13:08:07.615Z,2.21
2019-01-26T13:10:39.730Z,2.27
2019-01-26T13:13:08.471Z,2.31
2019-01-26T13:15:37.564Z,2.41
2019-01-26T13:18:06.388Z,2.52
2019-01-26T13:20:35.095Z,2.52
2019-01-26T13:23:04.535Z,2.52
2019-01-26T13:25:33.830Z,2.54
2019-01-26T13:28:02.626Z,2.57
2019-01-26T13:30:31.679Z,2.60
2019-01-26T13:33:00.324Z,2.69
2019-01-26T13:35:29.051Z,2.68
2019-01-26T13:37:58.080Z,2.63
2019-01-26T13:40:26.876Z,2.65
2019-01-26T13:42:55.875Z,2.66
2019-01-26T13:45:24.902Z,2.72
2019-01-26T13:47:53.653Z,2.74
2019-01-26T13:50:22.321Z,2.69
2019-01-26T13:52:51.570Z,2.69
2019-01-26T13:55:20.813Z,2.62
2019-01-26T13:57:49.744Z,2.71
2019-01-26T14:00:22.987Z,2.70
2019-01-26T14:02:51.994Z,2.71
2019-01-26T14:05:21.120Z,2.74
2019-01-26T14:07:49.777Z,2.70
2019-01-26T14:10:20.405Z,2.70
2019-01-26T14:12:49.294Z,2.75
2019-01-26T14:15:18.547Z,2.77
2019-01-26T14:17:47.660Z,2.76
2019-01-26T14:20:24.476Z,2.81
2019-01-26T14:22:53.469Z,2.90
2019-01-26T14:25:22.417Z,2.84
2019-01-26T14:27:53.263Z,2.72
2019-01-26T14:30:31.262Z,2.84
2019-01-26T14:33:00.189Z,2.85
2019-01-26T14:35:29.242Z,2.87
2019-01-26T14:37:58.115Z,2.85
2019-01-26T14:40:26.798Z,2.85
2019-01-26T14:42:58.857Z,2.82
2019-01-26T14:45:29.175Z,2.79
2019-01-26T14:47:58.508Z,2.85
2019-01-26T14:50:27.263Z,2.91
2019-01-26T14:52:56.030Z,2.84
2019-01-26T14:55:27.554Z,2.85
2019-01-26T14:57:56.467Z,2.82
2019-01-26T15:00:30.715Z,2.83
2019-01-26T15:02:59.738Z,2.83
2019-01-26T15:05:29.092Z,2.82
2019-01-26T15:07:58.267Z,2.87
2019-01-26T15:10:27.363Z,2.86
2019-01-26T15:12:56.326Z,2.77
2019-01-26T15:15:25.384Z,2.71
2019-01-26T15:17:54.327Z,2.78
2019-01-26T15:20:27.256Z,2.73
2019-01-26T15:22:56.655Z,2.77
2019-01-26T15:25:26.054Z,2.70
2019-01-26T15:27:54.682Z,2.76
2019-01-26T15:30:27.641Z,2.72
2019-01-26T15:32:56.502Z,2.71
2019-01-26T15:35:25.272Z,2.66
2019-01-26T15:37:54.058Z,2.70
2019-01-26T15:40:23.009Z,2.65
2019-01-26T15:42:53.433Z,2.71
2019-01-26T15:45:51.818Z,2.71
2019-01-26T15:48:27.653Z,2.67
2019-01-26T15:50:56.866Z,2.66
2019-01-26T15:53:25.516Z,2.69
2019-01-26T15:55:54.599Z,2.74
2019-01-26T15:58:23.302Z,2.67
2019-01-26T16:00:55.324Z,2.73
2019-01-26T16:03:23.945Z,2.74
2019-01-26T16:05:52.836Z,2.66
2019-01-26T16:08:21.449Z,2.68
2019-01-26T16:10:50.164Z,2.68
2019-01-26T16:13:19.159Z,2.70
2019-01-26T16:15:48.163Z,2.65
2019-01-26T16:18:17.066Z,2.63
2019-01-26T16:20:45.707Z,2.69
2019-01-26T16:23:14.647Z,2.64
2019-01-26T16:25:43.701Z,2.63
2019-01-26T16:28:12.381Z,2.65
2019-01-26T16:43:29.038Z,2.68
2019-01-26T16:45:57.997Z,2.66
2019-01-26T16:48:26.903Z,2.68
2019-01-26T16:50:56.031Z,2.73
2019-01-26T16:53:26.048Z,2.74
2019-01-26T16:55:54.739Z,2.62
2019-01-26T16:58:23.426Z,2.64
2019-01-26T17:00:55.814Z,2.62
2019-01-26T17:03:25.373Z,2.55
2019-01-26T17:05:54.278Z,2.50
2019-01-26T17:08:23.156Z,2.51
2019-01-26T17:11:03.056Z,2.54
2019-01-26T17:13:36.232Z,2.55
2019-01-26T17:16:05.180Z,2.43
2019-01-26T17:18:34.074Z,2.54
2019-01-26T17:21:02.962Z,2.48
2019-01-26T17:23:31.597Z,2.54
2019-01-26T17:26:00.625Z,2.59
2019-01-26T17:28:29.754Z,2.45
2019-01-26T17:30:58.394Z,2.45
2019-01-26T17:33:27.578Z,2.45
2019-01-26T17:35:56.467Z,2.43
2019-01-26T17:38:25.248Z,2.34
2019-01-26T17:40:54.684Z,2.32
2019-01-26T17:43:24.061Z,2.26
2019-01-26T17:45:52.969Z,2.31
2019-01-26T17:48:21.726Z,2.28
2019-01-26T17:50:50.595Z,2.28
2019-01-26T17:53:19.462Z,2.22
2019-01-26T17:55:48.365Z,2.23
2019-01-26T17:58:17.021Z,2.24
2019-01-26T18:00:52.189Z,2.29
2019-01-26T18:03:21.683Z,2.19
2019-01-26T18:05:50.717Z,2.20
2019-01-26T18:08:19.660Z,2.21
2019-01-26T18:10:48.695Z,2.23
2019-01-26T18:13:17.779Z,2.23
2019-01-26T18:15:46.937Z,2.20
2019-01-26T18:18:16.065Z,2.25
2019-01-26T18:20:49.293Z,2.19
2019-01-26T18:23:17.739Z,2.18
2019-01-26T18:25:46.795Z,2.22
2019-01-26T18:28:15.614Z,2.23
2019-01-26T18:30:44.341Z,2.20
2019-01-26T18:33:13.068Z,2.19
2019-01-26T18:35:42.037Z,2.23
2019-01-26T18:38:10.953Z,2.22
2019-01-26T18:40:39.902Z,2.22
2019-01-26T18:43:08.781Z,2.21
2019-01-26T18:45:37.760Z,2.16
2019-01-26T18:48:07.430Z,2.11
2019-01-26T18:50:38.082Z,2.05
2019-01-26T18:53:07.049Z,2.03
2019-01-26T18:55:35.789Z,2.02
2019-01-26T18:58:04.734Z,1.99
2019-01-26T19:00:36.487Z,2.02
2019-01-26T19:03:21.897Z,1.97
2019-01-26T19:05:51.614Z,1.96
2019-01-26T19:08:20.506Z,1.94
2019-01-26T19:10:49.404Z,1.94
2019-01-26T19:13:18.114Z,1.96
2019-01-26T19:15:46.754Z,1.94
2019-01-26T19:18:15.416Z,1.91
2019-01-26T19:20:44.507Z,1.89
2019-01-26T19:23:13.281Z,1.92
2019-01-26T19:25:42.199Z,1.90
2019-01-26T19:28:13.980Z,1.90
2019-01-26T19:30:42.708Z,1.91
2019-01-26T19:33:11.401Z,1.90
2019-01-26T19:35:40.658Z,1.90
2019-01-26T19:38:09.641Z,1.93
2019-01-26T19:40:38.362Z,1.92
2019-01-26T19:43:08.725Z,1.98
2019-01-26T19:45:37.668Z,1.98
2019-01-26T19:48:06.661Z,2.32
2019-01-26T19:50:35.318Z,2.38
2019-01-26T19:53:04.461Z,2.30
2019-01-26T19:55:33.433Z,2.15
2019-01-26T19:58:02.417Z,2.04
2019-01-26T20:00:31.295Z,2.00
2019-01-26T20:03:00.011Z,1.98
2019-01-26T20:05:29.078Z,1.97
2019-01-26T20:07:58.186Z,1.96
2019-01-26T20:10:27.207Z,1.95
2019-01-26T20:12:55.837Z,1.95
2019-01-26T20:15:24.736Z,1.95
2019-01-26T20:17:53.738Z,1.95
2019-01-26T20:20:25.501Z,1.94
2019-01-26T20:22:54.491Z,1.95
2019-01-26T20:25:23.454Z,1.96
2019-01-26T20:27:52.349Z,1.98
2019-01-26T20:30:26.973Z,2.00
2019-01-26T20:32:56.108Z,2.00
2019-01-26T20:35:24.818Z,1.98
2019-01-26T20:37:53.566Z,2.01
2019-01-26T20:40:23.306Z,2.01
2019-01-26T20:42:52.254Z,2.02
2019-01-26T20:45:23.621Z,2.03
2019-01-26T20:47:52.510Z,2.08
2019-01-26T20:50:21.293Z,2.06
2019-01-26T20:52:50.330Z,2.10
2019-01-26T20:55:21.355Z,2.09
2019-01-26T20:57:50.381Z,2.11
2019-01-26T21:00:21.598Z,2.13
2019-01-26T21:02:50.561Z,2.15
2019-01-26T21:05:19.196Z,2.12
2019-01-26T21:07:47.936Z,2.11
2019-01-26T21:10:19.350Z,2.17
2019-01-26T21:12:50.050Z,2.48
2019-01-26T21:15:21.115Z,2.41
2019-01-26T21:17:50.056Z,2.31
2019-01-26T21:20:19.728Z,2.20
2019-01-26T21:22:49.042Z,2.17
2019-01-26T21:25:17.997Z,2.16
2019-01-26T21:27:47.095Z,2.14
2019-01-26T21:30:18.986Z,2.14
2019-01-26T21:32:47.994Z,2.15
2019-01-26T21:35:16.697Z,2.13
2019-01-26T21:37:45.834Z,2.14
2019-01-26T21:40:25.790Z,2.16
2019-01-26T21:42:58.675Z,2.17
2019-01-26T21:45:27.695Z,2.18
2019-01-26T21:47:56.458Z,2.17
2019-01-26T21:50:30.068Z,2.20
2019-01-26T21:52:59.397Z,2.21
2019-01-26T21:55:29.700Z,2.21
2019-01-26T21:57:58.861Z,2.21
2019-01-26T22:00:31.647Z,2.20
2019-01-26T22:03:06.318Z,2.22
2019-01-26T22:05:38.080Z,2.21
2019-01-26T22:08:08.260Z,2.23
2019-01-26T22:10:40.024Z,2.24
2019-01-26T22:13:10.381Z,2.26
2019-01-26T22:15:40.486Z,2.33
2019-01-26T22:18:10.437Z,2.28
2019-01-26T22:20:40.237Z,2.29
2019-01-26T22:23:09.596Z,2.27
2019-01-26T22:25:39.150Z,2.24
2019-01-26T22:28:08.398Z,2.27
2019-01-26T22:30:37.432Z,2.26
2019-01-26T22:33:06.765Z,2.24
2019-01-26T22:35:35.938Z,2.26
2019-01-26T22:38:05.547Z,2.26
2019-01-26T22:40:36.270Z,2.25
2019-01-26T22:43:05.571Z,2.26
2019-01-26T22:45:34.463Z,2.25
2019-01-26T22:48:03.223Z,2.26
2019-01-26T22:50:32.569Z,2.26
2019-01-26T22:53:01.412Z,2.27
2019-01-26T22:55:31.320Z,2.27
2019-01-26T22:58:00.312Z,2.26
2019-01-26T23:00:50.414Z,2.30
2019-01-26T23:03:21.065Z,2.28
2019-01-26T23:06:16.045Z,2.29
2019-01-26T23:08:45.786Z,2.28
2019-01-26T23:12:01.963Z,2.31
2019-01-26T23:14:49.079Z,2.30
2019-01-26T23:17:45.079Z,2.30
2019-01-26T23:20:24.219Z,2.31
2019-01-26T23:23:46.587Z,2.30
2019-01-26T23:26:46.388Z,2.33
2019-01-26T23:29:55.482Z,2.30
2019-01-26T23:32:24.388Z,2.31
2019-01-26T23:34:53.496Z,2.33
2019-01-26T23:37:22.730Z,2.33
2019-01-26T23:39:51.583Z,2.33
2019-01-26T23:42:20.387Z,2.36
2019-01-26T23:44:49.504Z,2.36
2019-01-26T23:47:18.132Z,2.37
2019-01-26T23:49:46.763Z,2.38
2019-01-26T23:52:15.747Z,2.39
2019-01-26T23:54:44.409Z,2.39
2019-01-26T23:57:23.746Z,2.41
2019-01-26T23:59:53.127Z,2.44
